createdAt,value
2023-02-11T00:01:37.488Z,13.63
2023-02-11T00:04:05.454Z,14.17
2023-02-11T00:06:34.458Z,13.07
2023-02-11T00:09:01.817Z,14.13
2023-02-11T00:11:30.477Z,13.27
2023-02-11T00:14:02.442Z,13.93
2023-02-11T00:16:30.080Z,12.60
2023-02-11T00:18:58.758Z,12.77
2023-02-11T00:21:26.709Z,12.87
2023-02-11T00:23:54.929Z,11.90
2023-02-11T00:26:24.105Z,12.57
2023-02-11T00:28:52.259Z,12.17
2023-02-11T00:31:21.355Z,11.97
2023-02-11T00:33:48.239Z,11.17
2023-02-11T00:36:21.506Z,11.90
2023-02-11T00:38:49.965Z,10.47
2023-02-11T00:41:17.422Z,10.87
2023-02-11T00:43:44.465Z,10.40
2023-02-11T00:46:11.545Z,10.00
2023-02-11T00:48:38.386Z,10.67
2023-02-11T00:51:05.862Z,10.00
2023-02-11T00:53:33.134Z,9.63
2023-02-11T00:56:01.045Z,10.00
2023-02-11T00:58:28.488Z,9.73
2023-02-11T01:00:55.944Z,8.80
2023-02-11T01:03:22.816Z,7.70
2023-02-11T01:05:49.802Z,8.23
2023-02-11T01:08:16.662Z,8.70
2023-02-11T01:10:43.997Z,7.73
2023-02-11T01:13:11.071Z,8.83
2023-02-11T01:15:37.941Z,9.70
2023-02-11T01:18:05.991Z,8.37
2023-02-11T01:20:33.010Z,8.33
2023-02-11T01:22:59.691Z,8.67
2023-02-11T01:25:26.344Z,8.10
2023-02-11T01:27:52.970Z,8.90
2023-02-11T01:30:19.652Z,9.57
2023-02-11T01:32:46.289Z,8.23
2023-02-11T01:35:12.972Z,8.03
2023-02-11T01:37:39.742Z,9.57
2023-02-11T01:40:15.218Z,7.83
2023-02-11T01:42:42.187Z,8.33
2023-02-11T01:45:49.368Z,8.10
2023-02-11T01:48:24.619Z,7.77
2023-02-11T01:50:54.682Z,9.50
2023-02-11T01:53:41.104Z,8.17
2023-02-11T01:56:27.628Z,7.90
2023-02-11T01:58:58.363Z,9.60
2023-02-11T02:01:27.725Z,9.43
2023-02-11T02:03:59.768Z,8.87
2023-02-11T02:06:37.893Z,9.10
2023-02-11T02:09:13.405Z,9.37
2023-02-11T02:11:40.088Z,9.03
2023-02-11T02:14:06.857Z,10.03
2023-02-11T02:16:37.679Z,9.47
2023-02-11T02:19:37.556Z,11.17
2023-02-11T02:22:16.116Z,9.57
2023-02-11T02:25:12.999Z,10.77
2023-02-11T02:27:52.020Z,11.07
2023-02-11T02:30:42.075Z,10.50
2023-02-11T02:33:38.562Z,10.57
2023-02-11T02:36:31.975Z,10.97
2023-02-11T02:39:07.941Z,10.03
2023-02-11T02:41:36.582Z,10.67
2023-02-11T02:44:03.635Z,10.47
2023-02-11T02:46:33.843Z,11.10
2023-02-11T02:49:00.911Z,11.03
2023-02-11T02:52:01.646Z,11.93
2023-02-11T02:54:28.263Z,11.53
2023-02-11T02:57:08.541Z,11.53
2023-02-11T02:59:59.091Z,11.33
2023-02-11T03:03:12.754Z,11.50
2023-02-11T03:05:46.534Z,12.60
2023-02-11T03:08:24.385Z,11.90
2023-02-11T03:10:53.216Z,11.37
2023-02-11T03:13:22.918Z,11.60
2023-02-11T03:15:54.118Z,11.90
2023-02-11T03:18:25.789Z,11.47
2023-02-11T03:20:54.374Z,10.97
2023-02-11T03:23:26.520Z,11.83
2023-02-11T03:26:00.124Z,11.37
2023-02-11T03:28:35.591Z,12.50
2023-02-11T03:31:15.124Z,12.77
2023-02-11T03:34:08.722Z,12.43
2023-02-11T03:36:42.948Z,12.67
2023-02-11T03:39:11.402Z,12.90
2023-02-11T03:41:39.982Z,12.60
2023-02-11T03:44:08.580Z,11.47
2023-02-11T03:46:39.203Z,11.67
2023-02-11T03:49:11.954Z,12.23
2023-02-11T03:51:39.310Z,12.87
2023-02-11T03:54:10.549Z,12.40
2023-02-11T03:56:43.552Z,12.30
2023-02-11T03:59:10.195Z,12.40
2023-02-11T04:01:37.049Z,12.97
2023-02-11T04:04:03.889Z,12.67
2023-02-11T04:06:30.539Z,13.83
2023-02-11T04:08:57.314Z,13.37
2023-02-11T04:11:23.968Z,13.30
2023-02-11T04:13:50.650Z,13.50
2023-02-11T04:16:17.326Z,13.40
2023-02-11T04:18:43.977Z,14.00
2023-02-11T04:21:10.832Z,14.83
2023-02-11T04:23:37.580Z,14.90
2023-02-11T04:26:04.639Z,14.50
2023-02-11T04:28:31.499Z,14.43
2023-02-11T04:30:58.403Z,15.97
2023-02-11T04:33:25.242Z,16.57
2023-02-11T04:35:52.230Z,15.07
2023-02-11T04:38:19.149Z,15.03
2023-02-11T04:40:45.845Z,16.07
2023-02-11T04:43:12.576Z,16.00
2023-02-11T04:45:39.321Z,17.53
2023-02-11T04:48:06.117Z,17.73
2023-02-11T04:50:32.821Z,16.93
2023-02-11T04:52:59.471Z,17.47
2023-02-11T04:55:26.181Z,17.60
2023-02-11T04:58:00.146Z,17.90
2023-02-11T05:00:26.761Z,18.30
2023-02-11T05:02:53.414Z,18.10
2023-02-11T05:05:20.068Z,19.03
2023-02-11T05:07:46.781Z,18.77
2023-02-11T05:10:13.455Z,18.73
2023-02-11T05:12:40.116Z,19.67
2023-02-11T05:15:07.048Z,21.13
2023-02-11T05:17:33.699Z,21.40
2023-02-11T05:20:01.104Z,20.67
2023-02-11T05:22:27.758Z,21.50
2023-02-11T05:24:54.390Z,22.67
2023-02-11T05:27:21.063Z,21.27
2023-02-11T05:29:47.779Z,20.83
2023-02-11T05:32:14.477Z,22.77
2023-02-11T05:34:41.133Z,22.90
2023-02-11T05:37:08.035Z,23.93
2023-02-11T05:39:34.825Z,24.17
2023-02-11T05:42:01.540Z,23.63
2023-02-11T05:44:28.218Z,24.17
2023-02-11T05:46:54.989Z,23.33
2023-02-11T05:49:21.828Z,25.17
2023-02-11T05:51:48.645Z,27.67
2023-02-11T05:54:15.327Z,24.90
2023-02-11T05:56:44.651Z,26.77
2023-02-11T05:59:14.088Z,26.27
2023-02-11T06:01:41.064Z,28.93
2023-02-11T06:04:07.782Z,26.20
2023-02-11T06:06:34.436Z,27.57
2023-02-11T06:09:01.157Z,25.37
2023-02-11T06:11:27.799Z,26.87
2023-02-11T06:13:54.435Z,27.70
2023-02-11T06:16:21.309Z,26.40
2023-02-11T06:18:48.010Z,26.70
2023-02-11T06:21:14.642Z,26.30
2023-02-11T06:23:41.360Z,28.63
2023-02-11T06:26:15.691Z,27.07
2023-02-11T06:28:42.375Z,26.73
2023-02-11T06:31:09.805Z,28.47
2023-02-11T06:33:36.779Z,28.07
2023-02-11T06:36:04.474Z,27.70
2023-02-11T06:38:31.179Z,26.67
2023-02-11T06:40:57.839Z,26.13
2023-02-11T06:43:24.508Z,27.60
2023-02-11T06:45:55.435Z,28.20
2023-02-11T06:48:23.227Z,27.43
2023-02-11T06:50:49.849Z,25.73
2023-02-11T06:53:16.534Z,27.37
2023-02-11T06:55:43.184Z,27.57
2023-02-11T06:58:09.853Z,27.90
2023-02-11T07:00:37.259Z,25.90
2023-02-11T07:03:04.131Z,28.50
2023-02-11T07:05:30.883Z,28.10
2023-02-11T07:07:57.595Z,26.97
2023-02-11T07:10:24.280Z,27.63
2023-02-11T07:12:51.000Z,26.27
2023-02-11T07:15:17.771Z,26.03
2023-02-11T07:17:44.403Z,28.00
2023-02-11T07:20:12.507Z,27.77
2023-02-11T07:22:39.221Z,26.70
2023-02-11T07:25:06.230Z,25.93
2023-02-11T07:27:33.134Z,27.23
2023-02-11T07:29:59.795Z,27.93
2023-02-11T07:32:26.446Z,27.17
2023-02-11T07:34:53.195Z,27.60
2023-02-11T07:37:19.943Z,28.57
2023-02-11T07:39:46.579Z,27.93
2023-02-11T07:42:13.234Z,28.13
2023-02-11T07:44:39.875Z,26.73
2023-02-11T07:47:06.592Z,27.03
2023-02-11T07:49:33.280Z,26.07
2023-02-11T07:51:59.920Z,27.43
2023-02-11T07:54:26.594Z,27.70
2023-02-11T07:56:53.269Z,30.27
2023-02-11T07:59:20.039Z,26.87
2023-02-11T08:01:46.827Z,28.17
2023-02-11T08:04:13.854Z,28.43
2023-02-11T08:06:42.699Z,28.47
2023-02-11T08:09:14.096Z,27.80
2023-02-11T08:11:40.960Z,26.97
2023-02-11T08:14:08.614Z,28.63
2023-02-11T08:16:37.056Z,26.73
2023-02-11T08:19:06.823Z,26.70
2023-02-11T08:21:33.881Z,28.70
2023-02-11T08:24:03.503Z,27.83
2023-02-11T08:26:32.760Z,27.53
2023-02-11T08:28:59.613Z,25.60
2023-02-11T08:31:29.439Z,27.37
2023-02-11T08:33:59.795Z,26.83
2023-02-11T08:36:37.817Z,27.77
2023-02-11T08:39:18.524Z,28.63
2023-02-11T08:41:51.780Z,26.50
2023-02-11T08:44:19.859Z,27.13
2023-02-11T08:46:47.017Z,27.20
2023-02-11T08:49:14.842Z,25.67
2023-02-11T08:51:41.751Z,27.03
2023-02-11T08:54:09.860Z,27.13
2023-02-11T08:56:37.668Z,25.63
2023-02-11T08:59:05.069Z,25.57
2023-02-11T09:01:32.565Z,28.13
2023-02-11T09:04:01.051Z,26.23
2023-02-11T09:06:28.316Z,27.73
2023-02-11T09:08:56.639Z,26.40
2023-02-11T09:11:33.410Z,25.73
2023-02-11T09:14:01.431Z,25.63
2023-02-11T09:16:32.882Z,25.63
2023-02-11T09:19:01.602Z,26.90
2023-02-11T09:21:28.837Z,25.27
2023-02-11T09:23:56.494Z,25.30
2023-02-11T09:26:27.847Z,24.37
2023-02-11T09:28:54.718Z,25.67
2023-02-11T09:31:25.361Z,25.77
2023-02-11T09:33:56.045Z,25.07
2023-02-11T09:36:28.954Z,25.13
2023-02-11T09:38:57.662Z,23.97
2023-02-11T09:41:24.282Z,26.00
2023-02-11T09:43:58.286Z,24.00
2023-02-11T09:46:27.606Z,23.90
2023-02-11T09:48:55.940Z,23.83
2023-02-11T09:51:34.959Z,23.97
2023-02-11T09:54:07.579Z,23.10
2023-02-11T09:56:34.358Z,24.30
2023-02-11T09:59:01.052Z,22.97
2023-02-11T10:01:39.888Z,23.73
2023-02-11T10:04:57.476Z,23.50
2023-02-11T10:07:36.274Z,21.20
2023-02-11T10:10:38.727Z,22.90
2023-02-11T10:13:42.740Z,20.77
2023-02-11T10:16:39.977Z,19.73
2023-02-11T10:19:41.931Z,19.67
2023-02-11T10:22:41.256Z,18.50
2023-02-11T10:25:33.578Z,17.27
2023-02-11T10:28:10.068Z,18.07
2023-02-11T10:30:55.263Z,18.20
2023-02-11T10:33:32.480Z,16.67
2023-02-11T10:35:59.610Z,17.83
2023-02-11T10:38:27.733Z,16.97
2023-02-11T10:40:54.466Z,18.70
2023-02-11T10:43:26.190Z,16.23
2023-02-11T10:45:57.171Z,17.13
2023-02-11T10:48:38.678Z,15.50
2023-02-11T10:51:15.050Z,17.20
2023-02-11T10:53:42.274Z,20.10
2023-02-11T10:56:19.808Z,15.70
2023-02-11T10:58:59.233Z,16.17
2023-02-11T11:01:44.121Z,14.93
2023-02-11T11:04:35.172Z,15.27
2023-02-11T11:07:20.713Z,17.40
2023-02-11T11:10:03.105Z,14.60
2023-02-11T11:12:44.913Z,13.80
2023-02-11T11:15:11.606Z,13.07
2023-02-11T11:17:38.640Z,13.83
2023-02-11T11:20:27.245Z,15.07
2023-02-11T11:23:19.136Z,13.57
2023-02-11T11:26:18.720Z,14.50
2023-02-11T11:28:58.933Z,13.33
2023-02-11T11:31:45.369Z,13.33
2023-02-11T11:34:34.314Z,13.60
2023-02-11T11:37:30.215Z,13.77
2023-02-11T11:40:22.431Z,12.77
2023-02-11T11:43:05.924Z,13.80
2023-02-11T11:45:32.782Z,12.67
2023-02-11T11:48:37.656Z,13.13
2023-02-11T11:51:06.988Z,13.83
2023-02-11T11:53:48.517Z,14.50
2023-02-11T11:56:17.108Z,13.07
2023-02-11T11:58:44.121Z,12.87
2023-02-11T12:01:33.889Z,13.30
2023-02-11T12:04:36.770Z,12.70
2023-02-11T12:07:24.782Z,13.40
2023-02-11T12:10:27.837Z,12.67
2023-02-11T12:13:03.595Z,13.03
2023-02-11T12:15:44.424Z,14.10
2023-02-11T12:18:53.511Z,12.77
2023-02-11T12:21:41.605Z,13.07
2023-02-11T12:24:11.074Z,11.93
2023-02-11T12:26:56.264Z,12.20
2023-02-11T12:29:30.708Z,11.67
2023-02-11T12:32:15.015Z,12.40
2023-02-11T12:35:10.909Z,12.27
2023-02-11T12:37:45.729Z,12.50
2023-02-11T12:40:23.828Z,12.30
2023-02-11T12:43:15.200Z,12.20
2023-02-11T12:46:17.756Z,10.50
2023-02-11T12:49:11.614Z,10.20
2023-02-11T12:52:06.399Z,11.50
2023-02-11T12:54:36.654Z,10.73
2023-02-11T12:57:31.149Z,10.83
2023-02-11T13:00:27.262Z,10.10
2023-02-11T13:03:25.594Z,10.17
2023-02-11T13:05:55.158Z,8.77
2023-02-11T13:08:47.232Z,9.67
2023-02-11T13:11:22.629Z,10.07
2023-02-11T13:14:06.156Z,10.00
2023-02-11T13:16:46.133Z,9.83
2023-02-11T13:19:12.897Z,9.50
2023-02-11T13:21:58.270Z,9.80
2023-02-11T13:24:44.576Z,9.30
2023-02-11T13:27:23.693Z,9.80
2023-02-11T13:30:04.378Z,9.30
2023-02-11T13:32:56.364Z,9.23
2023-02-11T13:35:35.691Z,8.23
2023-02-11T13:38:05.519Z,9.17
2023-02-11T13:40:36.632Z,9.33
2023-02-11T13:43:06.492Z,9.03
2023-02-11T13:45:45.180Z,8.87
2023-02-11T13:48:31.017Z,8.67
2023-02-11T13:51:07.609Z,8.03
2023-02-11T13:53:55.652Z,7.20
2023-02-11T13:56:37.723Z,7.00
2023-02-11T13:59:30.633Z,6.67
2023-02-11T14:02:19.066Z,7.17
2023-02-11T14:05:24.214Z,6.90
2023-02-11T14:08:28.584Z,7.47
2023-02-11T14:11:14.686Z,6.90
2023-02-11T14:13:47.583Z,7.00
2023-02-11T14:16:31.687Z,6.67
2023-02-11T14:19:04.669Z,7.50
2023-02-11T14:21:38.890Z,7.10
2023-02-11T14:24:07.011Z,7.73
2023-02-11T14:26:59.193Z,7.50
2023-02-11T14:29:31.720Z,6.83
2023-02-11T14:32:05.907Z,7.40
2023-02-11T14:34:53.236Z,7.03
2023-02-11T14:37:50.447Z,7.60
2023-02-11T14:40:46.239Z,7.00
2023-02-11T14:43:19.363Z,6.50
2023-02-11T14:45:56.471Z,7.37
2023-02-11T14:48:30.351Z,6.70
2023-02-11T14:51:19.511Z,7.03
2023-02-11T14:54:24.870Z,6.60
2023-02-11T14:57:11.479Z,6.33
2023-02-11T14:59:38.494Z,5.97
2023-02-11T15:02:21.688Z,6.07
2023-02-11T15:04:48.461Z,6.53
2023-02-11T15:07:15.987Z,6.50
2023-02-11T15:09:50.680Z,6.47
2023-02-11T15:12:26.389Z,5.80
2023-02-11T15:14:59.060Z,5.70
2023-02-11T15:17:31.917Z,5.57
2023-02-11T15:20:01.777Z,5.80
2023-02-11T15:22:33.007Z,5.50
2023-02-11T15:25:07.485Z,5.83
2023-02-11T15:27:50.180Z,6.30
2023-02-11T15:30:22.898Z,6.17
2023-02-11T15:32:51.340Z,6.40
2023-02-11T15:35:19.104Z,5.60
2023-02-11T15:37:46.011Z,6.40
2023-02-11T15:40:21.133Z,6.10
2023-02-11T15:43:06.085Z,6.23
2023-02-11T15:45:43.079Z,5.80
2023-02-11T15:48:36.058Z,5.93
2023-02-11T15:51:28.686Z,6.30
2023-02-11T15:54:01.748Z,6.30
2023-02-11T15:56:30.480Z,6.17
2023-02-11T15:59:00.339Z,5.47
2023-02-11T16:01:34.019Z,5.70
2023-02-11T16:04:02.222Z,5.77
2023-02-11T16:06:40.056Z,5.90
2023-02-11T16:09:34.296Z,5.37
2023-02-11T16:12:04.548Z,5.30
2023-02-11T16:14:34.549Z,5.47
2023-02-11T16:17:09.594Z,6.20
2023-02-11T16:19:42.646Z,6.33
2023-02-11T16:22:11.999Z,6.67
2023-02-11T16:24:39.424Z,6.27
2023-02-11T16:27:40.061Z,5.27
2023-02-11T16:30:22.399Z,5.40
2023-02-11T16:32:49.122Z,5.53
2023-02-11T16:35:15.753Z,5.27
2023-02-11T16:37:42.385Z,5.83
2023-02-11T16:40:10.056Z,5.20
2023-02-11T16:42:36.690Z,5.60
2023-02-11T16:45:03.840Z,5.37
2023-02-11T16:47:33.466Z,5.23
2023-02-11T16:50:02.121Z,5.07
2023-02-11T16:52:31.572Z,4.97
2023-02-11T16:54:59.619Z,5.70
2023-02-11T16:57:28.885Z,5.83
2023-02-11T16:59:57.344Z,5.57
2023-02-11T17:02:30.528Z,5.90
2023-02-11T17:05:00.877Z,6.03
2023-02-11T17:07:27.973Z,7.03
2023-02-11T17:09:54.851Z,7.93
2023-02-11T17:12:21.953Z,10.80
2023-02-11T17:14:48.598Z,12.10
2023-02-11T17:17:16.008Z,9.43
2023-02-11T17:19:42.692Z,9.53
2023-02-11T17:22:11.692Z,9.23
2023-02-11T17:24:38.438Z,9.10
2023-02-11T17:27:05.128Z,10.00
2023-02-11T17:29:31.795Z,9.47
2023-02-11T17:31:58.565Z,9.63
2023-02-11T17:34:25.294Z,11.27
2023-02-11T17:36:51.995Z,11.17
2023-02-11T17:39:20.956Z,9.20
2023-02-11T17:41:47.659Z,10.73
2023-02-11T17:44:15.482Z,9.33
2023-02-11T17:46:42.294Z,11.40
2023-02-11T17:49:11.054Z,11.17
2023-02-11T17:51:39.183Z,9.90
2023-02-11T17:54:11.994Z,9.97
2023-02-11T17:56:40.758Z,9.63
2023-02-11T17:59:08.625Z,11.73
2023-02-11T18:01:37.025Z,11.90
2023-02-11T18:04:04.664Z,12.27
2023-02-11T18:06:33.678Z,12.30
2023-02-11T18:09:02.321Z,10.40
2023-02-11T18:11:30.524Z,9.70
2023-02-11T18:13:59.729Z,12.23
2023-02-11T18:16:28.940Z,14.57
2023-02-11T18:18:57.458Z,10.30
2023-02-11T18:21:25.283Z,10.30
2023-02-11T18:23:52.437Z,11.63
2023-02-11T18:26:21.313Z,12.07
2023-02-11T18:28:48.437Z,9.87
2023-02-11T18:31:15.549Z,11.37
2023-02-11T18:33:43.041Z,11.83
2023-02-11T18:36:12.506Z,11.33
2023-02-11T18:38:40.332Z,10.57
2023-02-11T18:41:07.580Z,10.67
2023-02-11T18:43:35.323Z,12.00
2023-02-11T18:46:06.631Z,11.03
2023-02-11T18:48:34.427Z,10.37
2023-02-11T18:51:01.208Z,11.27
2023-02-11T18:53:28.086Z,12.03
2023-02-11T18:55:55.322Z,12.30
2023-02-11T18:58:22.272Z,20.40
2023-02-11T19:00:49.994Z,12.70
2023-02-11T19:03:17.083Z,11.03
2023-02-11T19:05:46.354Z,12.50
2023-02-11T19:08:13.590Z,12.93
2023-02-11T19:10:45.281Z,12.50
2023-02-11T19:13:12.808Z,11.90
2023-02-11T19:15:43.162Z,11.90
2023-02-11T19:18:10.629Z,12.47
2023-02-11T19:20:42.207Z,12.00
2023-02-11T19:23:09.078Z,12.90
2023-02-11T19:25:36.095Z,14.13
2023-02-11T19:28:03.472Z,11.97
2023-02-11T19:30:30.183Z,12.73
2023-02-11T19:32:57.676Z,12.60
2023-02-11T19:35:25.049Z,12.73
2023-02-11T19:37:51.771Z,14.00
2023-02-11T19:40:21.217Z,13.00
2023-02-11T19:42:47.991Z,13.70
2023-02-11T19:45:14.743Z,13.83
2023-02-11T19:47:41.450Z,12.47
2023-02-11T19:50:09.071Z,12.77
2023-02-11T19:52:38.308Z,13.60
2023-02-11T19:55:05.375Z,12.23
2023-02-11T19:57:32.037Z,12.30
2023-02-11T19:59:58.652Z,12.43
2023-02-11T20:02:25.359Z,13.93
2023-02-11T20:04:52.027Z,12.97
2023-02-11T20:07:18.707Z,12.47
2023-02-11T20:09:45.404Z,14.27
2023-02-11T20:12:12.125Z,12.87
2023-02-11T20:14:38.861Z,12.13
2023-02-11T20:17:05.530Z,12.90
2023-02-11T20:19:32.295Z,12.70
2023-02-11T20:21:59.033Z,12.00
2023-02-11T20:24:26.041Z,12.73
2023-02-11T20:26:56.085Z,13.10
2023-02-11T20:29:23.673Z,13.67
2023-02-11T20:31:50.807Z,13.37
2023-02-11T20:34:18.305Z,12.53
2023-02-11T20:36:51.806Z,12.77
2023-02-11T20:39:21.709Z,13.20
2023-02-11T20:41:49.175Z,13.13
2023-02-11T20:44:16.389Z,13.20
2023-02-11T20:46:46.453Z,14.27
2023-02-11T20:49:15.800Z,17.20
2023-02-11T20:51:43.352Z,20.70
2023-02-11T20:54:15.331Z,15.60
2023-02-11T20:56:42.193Z,17.77
2023-02-11T20:59:09.519Z,16.87
2023-02-11T21:01:40.699Z,15.13
2023-02-11T21:04:19.569Z,16.33
2023-02-11T21:06:50.745Z,17.07
2023-02-11T21:09:21.149Z,17.00
2023-02-11T21:11:48.868Z,17.90
2023-02-11T21:14:15.728Z,18.10
2023-02-11T21:16:42.610Z,16.47
2023-02-11T21:19:09.283Z,17.37
2023-02-11T21:21:37.736Z,17.20
2023-02-11T21:24:05.770Z,17.30
2023-02-11T21:26:33.403Z,18.00
2023-02-11T21:29:00.082Z,16.83
2023-02-11T21:31:29.848Z,17.57
2023-02-11T21:33:59.399Z,17.50
2023-02-11T21:36:27.521Z,17.03
2023-02-11T21:38:54.461Z,17.83
2023-02-11T21:41:22.517Z,16.90
2023-02-11T21:43:49.878Z,16.70
2023-02-11T21:46:17.642Z,16.47
2023-02-11T21:48:44.417Z,19.47
2023-02-11T21:51:17.366Z,16.37
2023-02-11T21:53:44.249Z,17.07
2023-02-11T21:56:19.807Z,16.67
2023-02-11T21:58:46.921Z,16.07
2023-02-11T22:01:18.874Z,17.83
2023-02-11T22:03:46.282Z,17.50
2023-02-11T22:06:15.508Z,16.80
2023-02-11T22:08:42.507Z,17.70
2023-02-11T22:11:12.132Z,17.80
2023-02-11T22:13:39.577Z,17.77
2023-02-11T22:16:10.106Z,16.63
2023-02-11T22:18:37.160Z,15.90
2023-02-11T22:21:07.743Z,16.17
2023-02-11T22:23:34.768Z,16.70
2023-02-11T22:26:05.796Z,16.70
2023-02-11T22:28:32.736Z,17.00
2023-02-11T22:31:00.126Z,16.93
2023-02-11T22:33:27.965Z,16.93
2023-02-11T22:35:59.266Z,16.27
2023-02-11T22:38:26.719Z,16.03
2023-02-11T22:40:53.720Z,16.53
2023-02-11T22:43:20.562Z,16.40
2023-02-11T22:45:47.246Z,17.33
2023-02-11T22:48:14.030Z,16.93
2023-02-11T22:50:40.903Z,17.43
2023-02-11T22:53:07.549Z,16.20
2023-02-11T22:55:38.683Z,17.60
2023-02-11T22:58:06.226Z,15.73
2023-02-11T23:00:37.937Z,17.13
2023-02-11T23:03:05.306Z,17.27
2023-02-11T23:05:36.749Z,16.67
2023-02-11T23:08:03.508Z,17.27
2023-02-11T23:10:30.200Z,15.93
2023-02-11T23:12:56.887Z,16.93
2023-02-11T23:15:23.512Z,16.67
2023-02-11T23:17:50.235Z,16.13
2023-02-11T23:20:17.064Z,17.03
2023-02-11T23:22:43.685Z,16.50
2023-02-11T23:25:10.608Z,17.03
2023-02-11T23:27:37.380Z,16.63
2023-02-11T23:30:04.693Z,16.30
2023-02-11T23:32:31.408Z,16.17
2023-02-11T23:34:58.220Z,14.90
2023-02-11T23:37:24.888Z,16.77
2023-02-11T23:39:51.525Z,16.13
2023-02-11T23:42:18.274Z,16.30
2023-02-11T23:44:44.910Z,16.00
2023-02-11T23:47:11.688Z,16.10
2023-02-11T23:49:38.344Z,16.10
2023-02-11T23:52:05.017Z,16.73
2023-02-11T23:54:31.666Z,16.57
2023-02-11T23:56:58.454Z,16.97
2023-02-11T23:59:25.164Z,16.03
